Time;durP1;ratioP1;P1;durP2;ratioP2;P2;SDS_P1;SDS_P2;PMS_P1;PMS_P2;Temp;Humidity;BMP_temperature;BMP_pressure;BME280_temperature;BME280_humidity;BME280_pressure;Samples;Min_cycle;Max_cycle;Signal;HPM_P1;HPM_P2
2021/08/07 21:56:30;;;;;;;;;3.00;3.00;;;;;;;;3579573;39;112419;-81
2021/08/07 21:58:57;;;;;;;;;4.00;4.00;;;;;;;;3566819;39;113907;-83
2021/08/07 22:01:23;;;;;;;;;4.00;4.00;;;;;;;;3565400;39;113718;-84
2021/08/07 22:03:50;;;;;;;;;4.67;3.67;;;;;;;;3567323;39;113498;-84
2021/08/07 22:06:17;;;;;;;;;7.33;7.33;;;;;;;;3565480;39;114213;-83
2021/08/07 22:08:43;;;;;;;;;9.33;6.00;;;;;;;;3567672;39;112479;-85
2021/08/07 22:11:10;;;;;;;;;4.67;4.67;;;;;;;;3566370;39;113115;-84
2021/08/07 22:13:38;;;;;;;;;6.00;6.00;;;;;;;;3566743;39;113689;-83
2021/08/07 22:16:05;;;;;;;;;5.33;5.00;;;;;;;;3568972;39;111734;-83
2021/08/07 22:18:31;;;;;;;;;7.00;5.00;;;;;;;;3566339;39;113841;-85
2021/08/07 22:20:58;;;;;;;;;5.00;4.67;;;;;;;;3566636;39;111988;-85
2021/08/07 22:23:26;;;;;;;;;7.00;5.67;;;;;;;;3566371;39;113940;-85
2021/08/07 22:25:52;;;;;;;;;10.00;6.00;;;;;;;;3566717;39;113972;-85
2021/08/07 22:28:20;;;;;;;;;5.67;5.67;;;;;;;;3566025;39;111919;-85
2021/08/07 22:30:48;;;;;;;;;5.67;5.33;;;;;;;;3570523;39;113137;-83
2021/08/07 22:33:15;;;;;;;;;8.00;7.00;;;;;;;;3565782;39;113910;-85
2021/08/07 22:35:42;;;;;;;;;11.00;7.00;;;;;;;;3568053;39;113001;-86
2021/08/07 22:38:08;;;;;;;;;6.33;6.33;;;;;;;;3568997;39;112445;-86
2021/08/07 22:40:35;;;;;;;;;6.33;5.00;;;;;;;;3567189;39;112047;-86
2021/08/07 22:43:02;;;;;;;;;5.00;5.00;;;;;;;;3572860;39;113233;-86
2021/08/07 22:45:29;;;;;;;;;5.00;5.00;;;;;;;;3568770;39;114193;-86
2021/08/07 22:47:57;;;;;;;;;6.00;5.00;;;;;;;;3566875;39;112286;-85
2021/08/07 22:50:25;;;;;;;;;5.00;5.00;;;;;;;;3566394;39;114852;-84
2021/08/07 22:52:52;;;;;;;;;5.67;5.67;;;;;;;;3569272;39;113342;-84
2021/08/07 22:55:19;;;;;;;;;5.67;5.67;;;;;;;;3566240;39;112738;-84
2021/08/07 22:57:49;;;;;;;;;8.67;4.33;;;;;;;;3568308;39;113194;-85
2021/08/07 23:00:16;;;;;;;;;4.00;4.00;;;;;;;;3571097;39;113780;-83
2021/08/07 23:02:43;;;;;;;;;6.00;5.00;;;;;;;;3567909;39;113627;-84
2021/08/07 23:05:12;;;;;;;;;7.00;5.00;;;;;;;;3566747;39;114130;-83
2021/08/07 23:07:38;;;;;;;;;6.67;6.67;;;;;;;;3559887;39;112145;-84
2021/08/07 23:10:05;;;;;;;;;8.00;7.00;;;;;;;;3560712;39;113576;-83
2021/08/07 23:12:32;;;;;;;;;6.00;5.00;;;;;;;;3560761;39;113868;-83
2021/08/07 23:14:58;;;;;;;;;5.00;5.00;;;;;;;;3559159;39;112425;-86
2021/08/07 23:17:26;;;;;;;;;11.00;8.00;;;;;;;;3560267;39;113605;-85
2021/08/07 23:19:53;;;;;;;;;6.33;6.00;;;;;;;;3560243;39;114296;-85
2021/08/07 23:22:21;;;;;;;;;4.00;3.00;;;;;;;;3568655;39;112224;-84
2021/08/07 23:24:47;;;;;;;;;3.67;3.67;;;;;;;;3562697;39;113882;-83
2021/08/07 23:27:14;;;;;;;;;6.67;4.00;;;;;;;;3562412;39;112840;-84
2021/08/07 23:29:40;;;;;;;;;3.00;3.00;;;;;;;;3558834;39;113583;-84
2021/08/07 23:32:07;;;;;;;;;5.00;4.00;;;;;;;;3559883;39;114173;-84
2021/08/07 23:34:34;;;;;;;;;3.00;3.00;;;;;;;;3559192;39;113553;-85
2021/08/07 23:37:00;;;;;;;;;5.67;4.33;;;;;;;;3559828;39;113232;-84
2021/08/07 23:39:28;;;;;;;;;0.00;0.00;;;;;;;;3559372;39;114243;-83
2021/08/07 23:42:01;;;;;;;;;3.00;3.00;;;;;;;;3559168;39;111888;-83
2021/08/07 23:44:28;;;;;;;;;3.67;3.33;;;;;;;;3561797;39;113219;-84
2021/08/07 23:46:58;;;;;;;;;3.00;3.00;;;;;;;;3559226;39;113013;-84
2021/08/07 23:49:24;;;;;;;;;3.00;3.00;;;;;;;;3560054;39;113222;-85
2021/08/07 23:51:52;;;;;;;;;3.00;3.00;;;;;;;;3558287;39;114256;-84
2021/08/07 23:54:19;;;;;;;;;3.67;3.67;;;;;;;;3560356;39;113152;-84
2021/08/07 23:56:47;;;;;;;;;2.33;2.33;;;;;;;;3558588;39;113367;-85
2021/08/07 23:59:13;;;;;;;;;2.00;2.00;;;;;;;;3558159;39;114077;-84
